createdAt,value
2022-09-06T00:02:44.675Z,581.00
2022-09-06T00:07:43.963Z,582.00
2022-09-06T00:12:42.303Z,574.00
2022-09-06T00:17:42.614Z,590.00
2022-09-06T00:22:42.918Z,613.00
2022-09-06T00:27:41.233Z,579.00
2022-09-06T00:32:40.564Z,571.00
2022-09-06T00:37:39.692Z,569.00
2022-09-06T00:42:40.837Z,585.00
2022-09-06T00:47:39.174Z,619.00
2022-09-06T00:52:37.298Z,586.00
2022-09-06T00:57:36.625Z,563.00
2022-09-06T01:02:36.117Z,570.00
2022-09-06T01:07:35.133Z,592.00
2022-09-06T01:12:35.495Z,589.00
2022-09-06T01:17:33.832Z,583.00
2022-09-06T01:22:32.935Z,571.00
2022-09-06T01:27:33.225Z,593.00
2022-09-06T01:32:31.523Z,586.00
2022-09-06T01:37:30.816Z,575.00
2022-09-06T01:42:31.136Z,570.00
2022-09-06T01:47:29.438Z,600.00
2022-09-06T01:52:28.757Z,573.00
2022-09-06T01:57:28.069Z,589.00
2022-09-06T02:02:28.444Z,586.00
2022-09-06T02:07:28.555Z,590.00
2022-09-06T02:12:27.885Z,574.00
2022-09-06T02:17:25.199Z,581.00
2022-09-06T02:22:24.339Z,542.00
2022-09-06T02:27:24.533Z,583.00
2022-09-06T02:32:23.808Z,569.00
2022-09-06T02:37:21.921Z,576.00
2022-09-06T02:42:21.242Z,591.00
2022-09-06T02:47:22.544Z,561.00
2022-09-06T02:52:19.840Z,569.00
2022-09-06T02:57:20.150Z,581.00
2022-09-06T03:02:19.560Z,588.00
2022-09-06T03:07:17.611Z,577.00
2022-09-06T03:12:18.921Z,605.00
2022-09-06T03:17:16.200Z,587.00
2022-09-06T03:22:16.510Z,618.00
2022-09-06T03:27:14.783Z,615.00
2022-09-06T03:32:14.081Z,624.00
2022-09-06T03:37:15.356Z,611.00
2022-09-06T03:42:13.663Z,632.00
2022-09-06T03:47:16.522Z,667.00
2022-09-06T03:52:12.281Z,646.00
2022-09-06T03:57:11.562Z,633.00
2022-09-06T04:02:10.905Z,640.00
2022-09-06T04:07:09.036Z,612.00
2022-09-06T04:12:08.335Z,640.00
2022-09-06T04:17:08.645Z,635.00
2022-09-06T04:22:08.948Z,612.00
2022-09-06T04:27:06.236Z,634.00
2022-09-06T04:32:05.624Z,627.00
2022-09-06T04:37:04.706Z,627.00
2022-09-06T04:42:04.005Z,646.00
2022-09-06T04:47:07.425Z,618.00
2022-09-06T04:52:02.444Z,608.00
2022-09-06T04:57:01.754Z,605.00
2022-09-06T05:02:02.111Z,591.00
2022-09-06T05:07:01.195Z,576.00
2022-09-06T05:12:00.491Z,595.00
2022-09-06T05:16:59.792Z,606.00
2022-09-06T05:21:58.071Z,594.00
2022-09-06T05:26:57.359Z,593.00
2022-09-06T05:31:57.733Z,581.00
2022-09-06T05:36:54.835Z,593.00
2022-09-06T05:41:56.151Z,577.00
2022-09-06T05:46:54.489Z,572.00
2022-09-06T05:51:55.610Z,578.00
2022-09-06T05:56:52.890Z,582.00
2022-09-06T06:01:53.321Z,588.00
2022-09-06T06:06:51.391Z,579.00
2022-09-06T06:11:50.700Z,578.00
2022-09-06T06:16:50.156Z,582.00
2022-09-06T06:21:50.295Z,570.00
2022-09-06T06:26:48.589Z,572.00
2022-09-06T06:31:47.902Z,583.00
2022-09-06T06:36:47.188Z,574.00
2022-09-06T06:41:47.615Z,584.00
2022-09-06T06:46:45.734Z,573.00
2022-09-06T06:51:46.041Z,574.00
2022-09-06T06:56:45.322Z,577.00
2022-09-06T07:01:44.780Z,580.00
2022-09-06T07:11:43.922Z,566.00
2022-09-06T07:16:41.278Z,567.00
2022-09-06T07:21:40.383Z,561.00
2022-09-06T07:26:40.315Z,565.00
2022-09-06T07:36:40.119Z,567.00
2022-09-06T07:41:38.402Z,562.00
2022-09-06T07:46:37.743Z,569.00
2022-09-06T07:51:35.861Z,569.00
2022-09-06T07:56:36.167Z,568.00
2022-09-06T08:01:34.469Z,562.00
2022-09-06T08:11:32.904Z,584.00
2022-09-06T08:16:33.237Z,557.00
2022-09-06T08:21:31.543Z,557.00
2022-09-06T08:26:31.873Z,570.00
2022-09-06T08:31:30.318Z,561.00
2022-09-06T08:36:30.604Z,570.00
2022-09-06T08:41:29.706Z,563.00
2022-09-06T08:46:29.072Z,555.00
2022-09-06T08:51:28.207Z,548.00
2022-09-06T08:56:27.549Z,531.00
2022-09-06T09:01:26.615Z,538.00
2022-09-06T09:06:26.006Z,538.00
2022-09-06T09:11:25.171Z,535.00
2022-09-06T09:16:23.438Z,527.00
2022-09-06T09:21:25.675Z,532.00
2022-09-06T09:26:22.837Z,535.00
2022-09-06T09:31:21.060Z,540.00
2022-09-06T09:36:20.202Z,538.00
2022-09-06T09:41:19.391Z,537.00
2022-09-06T09:46:18.597Z,535.00
2022-09-06T09:51:25.466Z,536.00
2022-09-06T09:56:18.895Z,537.00
2022-09-06T10:01:16.285Z,552.00
2022-09-06T10:11:14.583Z,529.00
2022-09-06T10:16:13.921Z,536.00
2022-09-06T10:21:13.031Z,519.00
2022-09-06T10:26:12.361Z,546.00
2022-09-06T10:31:11.705Z,562.00
2022-09-06T10:36:11.000Z,541.00
2022-09-06T10:41:10.453Z,521.00
2022-09-06T10:46:09.639Z,517.00
2022-09-06T10:51:08.830Z,539.00
2022-09-06T10:56:09.134Z,581.00
2022-09-06T11:01:08.438Z,519.00
2022-09-06T11:06:06.795Z,576.00
2022-09-06T11:11:05.907Z,530.00
2022-09-06T11:16:06.235Z,533.00
2022-09-06T11:21:04.525Z,527.00
2022-09-06T11:26:04.815Z,525.00
2022-09-06T11:31:03.120Z,517.00
2022-09-06T11:36:04.311Z,529.00
2022-09-06T11:41:03.585Z,522.00
2022-09-06T11:46:00.941Z,541.00
2022-09-06T11:51:01.038Z,597.00
2022-09-06T11:56:00.217Z,517.00
2022-09-06T12:00:59.288Z,493.00
2022-09-06T12:05:58.607Z,514.00
2022-09-06T12:10:56.897Z,518.00
2022-09-06T12:15:56.222Z,537.00
2022-09-06T12:20:55.571Z,538.00
2022-09-06T12:25:56.659Z,521.00
2022-09-06T12:30:55.020Z,486.00
2022-09-06T12:40:53.317Z,517.00
2022-09-06T12:45:52.617Z,519.00
2022-09-06T12:50:51.010Z,513.00
2022-09-06T12:55:51.109Z,511.00
2022-09-06T13:00:49.402Z,541.00
2022-09-06T13:05:49.799Z,492.00
2022-09-06T13:10:47.913Z,513.00
2022-09-06T13:15:48.302Z,518.00
2022-09-06T13:20:47.594Z,517.00
2022-09-06T13:25:45.660Z,512.00
2022-09-06T13:30:49.921Z,521.00
2022-09-06T13:35:44.226Z,513.00
2022-09-06T13:41:09.856Z,516.00
2022-09-06T13:45:41.534Z,519.00
2022-09-06T13:50:41.861Z,516.00
2022-09-06T13:55:41.975Z,515.00
2022-09-06T14:00:41.377Z,512.00
2022-09-06T14:05:40.608Z,508.00
2022-09-06T14:10:38.781Z,519.00
2022-09-06T14:15:37.908Z,527.00
2022-09-06T14:20:40.152Z,522.00
2022-09-06T14:25:36.254Z,539.00
2022-09-06T14:30:37.576Z,529.00
2022-09-06T14:35:35.869Z,535.00
2022-09-06T14:40:35.196Z,531.00
2022-09-06T14:45:33.517Z,539.00
2022-09-06T14:50:32.866Z,550.00
2022-09-06T14:55:34.995Z,547.00
2022-09-06T15:00:32.278Z,541.00
2022-09-06T15:05:29.583Z,531.00
2022-09-06T15:10:29.956Z,531.00
2022-09-06T15:15:29.113Z,540.00
2022-09-06T15:20:28.332Z,525.00
2022-09-06T15:25:28.439Z,534.00
2022-09-06T15:30:27.738Z,531.00
2022-09-06T15:35:26.032Z,531.00
2022-09-06T15:40:26.183Z,554.00
2022-09-06T15:45:25.525Z,555.00
2022-09-06T15:50:47.488Z,538.00
2022-09-06T15:55:23.901Z,525.00
2022-09-06T16:00:21.220Z,540.00
2022-09-06T16:10:21.549Z,522.00
2022-09-06T16:15:19.866Z,525.00
2022-09-06T16:20:23.316Z,522.00
2022-09-06T16:25:18.393Z,525.00
2022-09-06T16:30:17.697Z,532.00
2022-09-06T16:35:18.244Z,511.00
2022-09-06T16:40:18.338Z,530.00
2022-09-06T16:45:17.640Z,516.00
2022-09-06T16:50:13.986Z,521.00
2022-09-06T16:55:15.148Z,524.00
2022-09-06T17:00:14.374Z,537.00
2022-09-06T17:05:12.511Z,542.00
2022-09-06T17:10:11.878Z,535.00
2022-09-06T17:15:10.986Z,565.00
2022-09-06T17:20:10.311Z,528.00
2022-09-06T17:25:10.668Z,554.00
2022-09-06T17:30:10.877Z,528.00
2022-09-06T17:35:08.065Z,537.00
2022-09-06T17:40:07.308Z,552.00
2022-09-06T17:45:05.705Z,538.00
2022-09-06T17:50:06.683Z,531.00
2022-09-06T17:55:05.015Z,553.00
2022-09-06T18:00:04.126Z,562.00
2022-09-06T18:05:03.671Z,552.00
2022-09-06T18:10:03.782Z,555.00
2022-09-06T18:15:02.064Z,560.00
2022-09-06T18:20:00.467Z,555.00
2022-09-06T18:25:00.661Z,558.00
2022-09-06T18:30:00.653Z,576.00
2022-09-06T18:34:59.004Z,589.00
2022-09-06T18:39:58.273Z,566.00
2022-09-06T18:44:58.612Z,554.00
2022-09-06T18:49:57.835Z,618.00
2022-09-06T18:54:57.038Z,623.00
2022-09-06T18:59:56.263Z,615.00
2022-09-06T19:04:58.427Z,621.00
2022-09-06T19:09:53.606Z,587.00
2022-09-06T19:14:52.557Z,578.00
2022-09-06T19:19:52.204Z,557.00
2022-09-06T19:24:51.406Z,556.00
2022-09-06T19:29:50.579Z,540.00
2022-09-06T19:34:49.784Z,541.00
2022-09-06T19:39:49.136Z,540.00
2022-09-06T19:44:49.165Z,529.00
2022-09-06T19:49:49.461Z,535.00
2022-09-06T19:54:47.707Z,524.00
2022-09-06T19:59:47.901Z,544.00
2022-09-06T20:04:45.069Z,535.00
2022-09-06T20:09:47.561Z,529.00
2022-09-06T20:14:43.437Z,537.00
2022-09-06T20:19:42.622Z,528.00
2022-09-06T20:24:41.838Z,533.00
2022-09-06T20:29:42.016Z,551.00
2022-09-06T20:34:40.156Z,566.00
2022-09-06T20:39:39.459Z,598.00
2022-09-06T20:44:38.684Z,602.00
2022-09-06T20:49:38.878Z,592.00
2022-09-06T20:54:37.060Z,607.00
2022-09-06T20:59:35.980Z,586.00
2022-09-06T21:04:35.281Z,571.00
2022-09-06T21:09:35.591Z,590.00
2022-09-06T21:14:34.885Z,581.00
2022-09-06T21:19:34.192Z,616.00
2022-09-06T21:24:32.515Z,619.00
2022-09-06T21:29:31.861Z,634.00
2022-09-06T21:34:31.199Z,596.00
2022-09-06T21:39:31.412Z,559.00
2022-09-06T21:44:29.542Z,577.00
2022-09-06T21:49:30.908Z,590.00
2022-09-06T21:54:28.026Z,586.00
2022-09-06T21:59:27.325Z,604.00
2022-09-06T22:04:27.636Z,609.00
2022-09-06T22:09:25.925Z,553.00
2022-09-06T22:14:26.217Z,556.00
2022-09-06T22:19:24.681Z,541.00
2022-09-06T22:24:24.009Z,555.00
2022-09-06T22:29:25.592Z,645.00
2022-09-06T22:34:22.493Z,547.00
2022-09-06T22:39:21.624Z,547.00
2022-09-06T22:44:20.745Z,575.00
2022-09-06T22:49:21.066Z,579.00
2022-09-06T22:54:19.410Z,571.00
2022-09-06T22:59:18.703Z,564.00
2022-09-06T23:04:18.058Z,570.00
2022-09-06T23:09:17.188Z,561.00
2022-09-06T23:14:16.502Z,659.00
2022-09-06T23:19:16.826Z,648.00
2022-09-06T23:24:17.157Z,570.00
2022-09-06T23:29:14.456Z,573.00
2022-09-06T23:34:14.759Z,587.00
2022-09-06T23:39:13.056Z,624.00
2022-09-06T23:44:12.344Z,613.00
2022-09-06T23:49:12.702Z,635.00
2022-09-06T23:54:10.790Z,604.00
2022-09-06T23:59:12.092Z,591.00
